Time;durP1;ratioP1;P1;durP2;ratioP2;P2;SDS_P1;SDS_P2;PMS_P1;PMS_P2;Temp;Humidity;BMP_temperature;BMP_pressure;BME280_temperature;BME280_humidity;BME280_pressure;Samples;Min_cycle;Max_cycle;Signal;HPM_P1;HPM_P2
2021/09/01 00:00:01;;;;;;;7.95;4.57;;;;;;;28.35;36.40;101044.56;143727;583;47004;-68
2021/09/01 00:02:27;;;;;;;3.65;3.35;;;;;;;28.33;36.76;101055.91;143728;602;47006;-67
2021/09/01 00:04:54;;;;;;;4.45;3.80;;;;;;;28.29;36.46;101046.66;143729;579;47002;-67
2021/09/01 00:07:20;;;;;;;5.70;3.85;;;;;;;28.28;36.56;101047.78;143728;656;47012;-67
2021/09/01 00:09:46;;;;;;;4.03;3.35;;;;;;;28.27;36.73;101051.66;143726;591;47006;-67
2021/09/01 00:12:13;;;;;;;5.72;3.78;;;;;;;28.24;36.71;101057.78;143726;601;47006;-67
2021/09/01 00:14:39;;;;;;;5.18;3.83;;;;;;;28.24;36.25;101050.31;143722;664;47002;-68
2021/09/01 00:17:06;;;;;;;4.40;3.67;;;;;;;28.26;36.11;101047.25;143724;608;47010;-67
2021/09/01 00:19:32;;;;;;;6.47;3.60;;;;;;;28.26;35.88;101050.81;143726;662;47006;-67
2021/09/01 00:21:59;;;;;;;4.50;3.50;;;;;;;28.27;36.32;101051.66;143727;611;47006;-67
2021/09/01 00:24:25;;;;;;;4.78;3.70;;;;;;;28.26;36.32;101063.84;143728;568;48002;-67
2021/09/01 00:26:52;;;;;;;5.45;3.33;;;;;;;28.26;35.94;101061.06;143730;597;46928;-67
2021/09/01 00:29:18;;;;;;;6.25;3.53;;;;;;;28.27;35.95;101058.00;143727;610;47006;-68
2021/09/01 00:31:45;;;;;;;5.95;3.75;;;;;;;28.27;35.24;101058.00;143729;568;47004;-68
2021/09/01 00:34:11;;;;;;;3.80;3.20;;;;;;;28.28;35.94;101059.63;143729;638;47002;-67
2021/09/01 00:36:37;;;;;;;5.45;3.53;;;;;;;28.26;35.44;101055.53;143726;600;47010;-68
2021/09/01 00:39:04;;;;;;;6.25;3.85;;;;;;;28.26;35.72;101052.78;143718;615;47004;-67
2021/09/01 00:41:30;;;;;;;7.53;3.53;;;;;;;28.28;35.40;101056.84;143727;575;47008;-68
2021/09/01 00:44:20;;;;;;;4.12;3.47;;;;;;;28.28;35.71;101045.81;143729;572;47004;-67
2021/09/01 00:46:47;;;;;;;8.02;4.10;;;;;;;28.27;35.59;101044.19;143726;573;47008;-68
2021/09/01 00:49:14;;;;;;;3.75;3.33;;;;;;;28.24;35.49;101052.28;143729;721;46014;-67
2021/09/01 00:51:48;;;;;;;5.85;3.55;;;;;;;28.24;35.58;101049.50;143729;601;47008;-68
2021/09/01 00:54:19;;;;;;;5.43;3.78;;;;;;;28.23;36.22;101047.88;143729;648;47006;-67
2021/09/01 00:56:54;;;;;;;4.65;3.87;;;;;;;28.22;35.63;101047.06;143728;619;47010;-67
2021/09/01 00:59:24;;;;;;;8.35;3.90;;;;;;;28.23;35.10;101045.12;143729;575;47004;-66
2021/09/01 01:01:51;;;;;;;6.93;3.20;;;;;;;28.22;35.70;101044.31;143728;630;46008;-68
2021/09/01 01:04:18;;;;;;;5.25;3.45;;;;;;;28.20;36.46;101051.25;143721;581;47004;-68
2021/09/01 01:06:45;;;;;;;13.05;4.57;;;;;;;28.16;36.61;101055.75;143730;598;47010;-66
2021/09/01 01:09:11;;;;;;;11.23;3.83;;;;;;;28.15;36.29;101052.19;143729;593;47006;-68
2021/09/01 01:11:58;;;;;;;8.50;3.97;;;;;;;28.16;36.10;101047.47;143728;585;47006;-68
2021/09/01 01:14:25;;;;;;;10.32;4.18;;;;;;;28.17;36.25;101049.09;143730;606;47002;-67
2021/09/01 01:16:52;;;;;;;8.73;3.97;;;;;;;28.16;36.45;101047.47;143728;689;47012;-66
2021/09/01 01:19:21;;;;;;;8.30;4.10;;;;;;;28.10;36.02;101046.78;143728;608;47007;-66
2021/09/01 01:21:47;;;;;;;5.50;3.53;;;;;;;28.08;36.31;101041.53;143726;609;47006;-68
2021/09/01 01:24:14;;;;;;;5.35;3.50;;;;;;;28.04;36.59;101053.53;143729;610;47002;-66
2021/09/01 01:26:40;;;;;;;5.85;3.90;;;;;;;28.02;36.34;101045.53;143728;641;47011;-67
2021/09/01 01:29:09;;;;;;;7.68;3.83;;;;;;;28.01;36.49;101051.38;143720;579;47012;-68
2021/09/01 01:31:40;;;;;;;4.80;3.22;;;;;;;27.97;35.87;101054.75;143728;569;47006;-67
2021/09/01 01:34:14;;;;;;;6.12;3.42;;;;;;;27.97;36.36;101057.50;143730;567;47002;-67
2021/09/01 01:36:41;;;;;;;5.50;3.15;;;;;;;27.94;36.28;101054.56;143729;673;47010;-67
2021/09/01 01:39:07;;;;;;;7.70;3.37;;;;;;;27.95;35.79;101053.44;143728;593;47004;-66
2021/09/01 01:41:34;;;;;;;6.82;3.40;;;;;;;27.95;36.35;101047.91;143728;609;47007;-67
2021/09/01 01:44:01;;;;;;;4.10;3.33;;;;;;;27.92;36.17;101054.84;143730;581;47006;-68
2021/09/01 01:46:27;;;;;;;6.35;3.70;;;;;;;27.92;35.99;101048.53;143726;597;47010;-66
2021/09/01 01:48:53;;;;;;;4.68;3.50;;;;;;;27.89;36.42;101049.12;143729;694;47004;-67
2021/09/01 01:51:20;;;;;;;7.20;3.85;;;;;;;27.89;36.30;101051.91;143725;665;47008;-66
2021/09/01 01:53:46;;;;;;;5.25;4.00;;;;;;;27.88;36.54;101058.53;143723;601;47006;-67
2021/09/01 01:56:13;;;;;;;5.95;3.45;;;;;;;27.88;36.14;101058.53;143728;617;47010;-68
2021/09/01 01:58:40;;;;;;;5.03;3.40;;;;;;;27.89;35.02;101058.22;143727;631;47004;-66
2021/09/01 02:01:06;;;;;;;6.30;3.78;;;;;;;27.89;34.93;101066.50;143726;595;47008;-67
2021/09/01 02:03:32;;;;;;;5.62;3.17;;;;;;;27.93;34.73;101063.97;143730;659;47004;-68
2021/09/01 02:05:59;;;;;;;4.05;3.28;;;;;;;27.92;35.12;101068.66;143726;613;47010;-69
2021/09/01 02:08:25;;;;;;;6.57;4.07;;;;;;;27.92;34.96;101065.09;143728;609;47004;-67
2021/09/01 02:10:52;;;;;;;3.85;3.20;;;;;;;27.92;35.41;101073.38;143728;622;47008;-67
2021/09/01 02:13:18;;;;;;;4.45;3.78;;;;;;;27.94;35.61;101063.66;143730;599;47004;-69
2021/09/01 02:15:45;;;;;;;4.60;3.50;;;;;;;27.96;35.85;101077.16;143728;616;47010;-67
2021/09/01 02:18:11;;;;;;;5.43;3.92;;;;;;;27.97;36.32;101065.00;143720;676;47007;-67
2021/09/01 02:20:39;;;;;;;5.22;3.55;;;;;;;27.98;36.53;101069.34;143729;595;47006;-68
2021/09/01 02:23:05;;;;;;;5.00;3.78;;;;;;;27.95;36.26;101065.28;143731;588;47002;-68
2021/09/01 02:25:32;;;;;;;4.80;3.33;;;;;;;27.89;36.11;101066.50;143727;727;47012;-67
2021/09/01 02:27:58;;;;;;;5.72;3.08;;;;;;;27.83;35.91;101071.31;143728;603;47008;-69
2021/09/01 02:30:24;;;;;;;7.18;3.37;;;;;;;27.82;36.14;101074.41;143729;588;47012;-66
2021/09/01 02:32:51;;;;;;;6.65;3.60;;;;;;;27.77;35.84;101066.22;143730;569;47006;-69
2021/09/01 02:35:18;;;;;;;5.47;3.53;;;;;;;27.78;35.89;101071.44;143729;568;47013;-67
2021/09/01 02:37:44;;;;;;;5.50;3.40;;;;;;;27.79;36.97;101064.81;143728;653;47004;-67
2021/09/01 02:40:12;;;;;;;7.22;3.53;;;;;;;27.77;36.70;101067.03;143729;630;47006;-67
2021/09/01 02:42:38;;;;;;;4.85;3.97;;;;;;;27.78;36.37;101067.84;143723;750;47004;-68
2021/09/01 02:45:06;;;;;;;7.95;4.10;;;;;;;27.78;36.83;101071.44;143728;671;47010;-68
2021/09/01 02:47:32;;;;;;;7.37;4.10;;;;;;;27.77;37.13;101074.50;143728;569;47004;-67
2021/09/01 02:49:59;;;;;;;4.97;3.55;;;;;;;27.75;37.14;101072.06;143732;705;47008;-67
2021/09/01 02:52:25;;;;;;;5.57;3.95;;;;;;;27.76;36.85;101070.94;143729;578;47002;-66
2021/09/01 02:54:52;;;;;;;8.13;3.90;;;;;;;27.77;37.06;101072.56;143727;639;47008;-67
2021/09/01 02:57:18;;;;;;;5.82;3.90;;;;;;;27.76;36.89;101072.84;143729;690;47007;-67
2021/09/01 02:59:45;;;;;;;9.70;4.65;;;;;;;27.74;36.82;101072.34;143731;627;47008;-67
2021/09/01 03:02:11;;;;;;;4.62;4.00;;;;;;;27.71;37.14;101073.78;143732;586;47004;-67
2021/09/01 03:04:38;;;;;;;6.80;4.05;;;;;;;27.73;35.86;101090.03;143729;741;47008;-67
2021/09/01 03:07:04;;;;;;;6.43;3.70;;;;;;;27.73;35.83;101087.25;143723;588;47010;-66
2021/09/01 03:09:31;;;;;;;6.32;3.72;;;;;;;27.73;36.38;101090.03;143730;652;47008;-67
2021/09/01 03:11:57;;;;;;;6.12;3.67;;;;;;;27.71;36.71;101089.53;143731;668;47004;-68
2021/09/01 03:14:24;;;;;;;7.55;3.55;;;;;;;27.73;37.01;101088.09;143729;608;46010;-67
2021/09/01 03:16:50;;;;;;;4.97;3.45;;;;;;;27.69;36.72;101098.94;143726;566;47006;-67
2021/09/01 03:19:16;;;;;;;8.73;3.70;;;;;;;27.66;37.01;101102.31;143726;567;47009;-67
2021/09/01 03:21:43;;;;;;;7.15;3.90;;;;;;;27.64;37.04;101099.03;143729;698;47002;-67
2021/09/01 03:24:09;;;;;;;6.78;4.20;;;;;;;27.62;37.11;101103.22;143729;668;47012;-67
2021/09/01 03:26:36;;;;;;;4.87;3.70;;;;;;;27.57;37.15;101106.88;143729;575;47005;-68
2021/09/01 03:29:02;;;;;;;7.25;3.60;;;;;;;27.53;37.42;101101.16;143729;703;47006;-67
2021/09/01 03:31:29;;;;;;;9.50;4.22;;;;;;;27.51;36.95;101106.16;143726;568;47004;-67
2021/09/01 03:33:55;;;;;;;4.70;3.60;;;;;;;27.51;36.95;101117.19;143729;659;47012;-67
2021/09/01 03:36:22;;;;;;;6.40;3.95;;;;;;;27.49;37.39;101111.16;143727;589;47004;-68
2021/09/01 03:38:48;;;;;;;6.53;4.20;;;;;;;27.48;37.54;101111.47;143728;686;47008;-68
2021/09/01 03:41:15;;;;;;;9.35;3.90;;;;;;;27.48;37.47;101117.00;143731;573;47004;-67
2021/09/01 03:43:41;;;;;;;5.22;3.50;;;;;;;27.48;37.81;101117.00;143730;674;47008;-67
2021/09/01 03:46:08;;;;;;;5.53;3.95;;;;;;;27.48;37.73;101120.56;143729;687;47006;-69
2021/09/01 03:48:34;;;;;;;7.00;4.07;;;;;;;27.47;37.97;101118.91;143730;602;47006;-67
2021/09/01 03:51:01;;;;;;;5.65;4.07;;;;;;;27.46;37.48;101110.97;143730;639;47004;-67
2021/09/01 03:53:27;;;;;;;6.53;3.65;;;;;;;27.47;37.79;101131.91;143729;603;47010;-68
2021/09/01 03:55:53;;;;;;;11.82;4.62;;;;;;;27.45;37.35;101126.66;143722;577;47004;-67
2021/09/01 03:58:20;;;;;;;6.45;4.35;;;;;;;27.47;38.02;101124.44;143731;568;47006;-68
2021/09/01 04:00:46;;;;;;;7.25;4.47;;;;;;;27.46;38.03;101125.56;143731;673;47004;-68
2021/09/01 04:03:13;;;;;;;6.90;4.18;;;;;;;27.45;38.03;101126.66;143730;587;47010;-67
2021/09/01 04:05:39;;;;;;;9.32;4.55;;;;;;;27.41;38.66;101122.88;143729;572;47004;-67
2021/09/01 04:08:06;;;;;;;12.75;4.87;;;;;;;27.37;38.47;101122.66;143731;572;47006;-67
2021/09/01 04:10:32;;;;;;;13.10;4.47;;;;;;;27.39;38.35;101123.16;143732;597;47004;-67
2021/09/01 04:12:59;;;;;;;18.85;4.55;;;;;;;27.39;38.30;101123.16;143730;762;47010;-69
2021/09/01 04:15:25;;;;;;;6.80;4.00;;;;;;;27.42;38.39;101129.19;143730;721;47006;-68
2021/09/01 04:17:52;;;;;;;15.82;5.60;;;;;;;27.42;37.99;101132.78;143731;691;47006;-67
2021/09/01 04:20:18;;;;;;;7.75;4.32;;;;;;;27.42;38.02;101131.97;143726;584;47006;-68
2021/09/01 04:22:45;;;;;;;14.20;5.12;;;;;;;27.41;38.31;101142.19;143727;616;48008;-67
2021/09/01 04:25:12;;;;;;;11.80;4.62;;;;;;;27.43;38.51;101148.22;143730;608;47006;-66
2021/09/01 04:27:39;;;;;;;7.97;4.45;;;;;;;27.44;38.07;101147.09;143730;572;47006;-65
2021/09/01 04:30:07;;;;;;;8.18;4.45;;;;;;;27.45;38.78;101145.16;143734;572;47004;-68
2021/09/01 04:32:34;;;;;;;8.65;4.22;;;;;;;27.49;38.91;101148.97;143732;593;47010;-66
2021/09/01 04:35:00;;;;;;;7.80;4.82;;;;;;;27.50;39.32;101159.69;143728;671;47006;-68
2021/09/01 04:37:27;;;;;;;12.95;5.03;;;;;;;27.49;38.87;101157.25;143729;629;47006;-67
2021/09/01 04:39:53;;;;;;;17.33;5.43;;;;;;;27.46;39.01;101160.62;143732;606;47004;-67
2021/09/01 04:42:20;;;;;;;12.02;5.22;;;;;;;27.46;38.64;101157.84;143731;595;47010;-67
2021/09/01 04:44:46;;;;;;;10.02;4.97;;;;;;;27.46;39.01;101160.62;143722;718;47006;-67
2021/09/01 04:47:13;;;;;;;7.78;5.65;;;;;;;27.47;38.92;101162.25;143730;712;47007;-67
2021/09/01 04:49:40;;;;;;;7.78;4.50;;;;;;;27.49;38.61;101169.09;143732;676;47002;-68
2021/09/01 04:52:06;;;;;;;9.25;4.57;;;;;;;27.51;38.83;101177.88;143729;601;47021;-67
2021/09/01 04:54:33;;;;;;;10.30;4.82;;;;;;;27.53;38.77;101172.91;143730;608;47007;-66
2021/09/01 04:56:59;;;;;;;10.02;5.12;;;;;;;27.58;39.55;101176.69;143727;628;47004;-67
2021/09/01 04:59:25;;;;;;;8.52;4.65;;;;;;;27.63;39.24;101182.94;143732;693;47004;-67
2021/09/01 05:01:52;;;;;;;12.40;4.60;;;;;;;27.66;38.78;101182.31;143729;586;47012;-67
2021/09/01 05:04:18;;;;;;;9.02;5.00;;;;;;;27.72;38.81;101193.25;143724;648;47006;-69
2021/09/01 05:06:44;;;;;;;7.12;4.80;;;;;;;27.78;38.58;101192.87;143731;591;46008;-69
2021/09/01 05:09:10;;;;;;;13.25;4.97;;;;;;;27.83;38.92;101201.03;143723;695;47004;-66
2021/09/01 05:11:37;;;;;;;10.65;5.30;;;;;;;27.83;38.64;101201.03;143724;648;47010;-67
2021/09/01 05:14:03;;;;;;;11.52;5.37;;;;;;;27.84;39.24;101204.62;143728;620;47006;-68
2021/09/01 05:16:30;;;;;;;11.85;5.10;;;;;;;27.81;39.54;101203.28;143728;618;47006;-68
2021/09/01 05:18:56;;;;;;;19.55;5.20;;;;;;;27.79;39.33;101210.25;143731;599;47004;-67
2021/09/01 05:21:26;;;;;;;10.38;5.37;;;;;;;27.78;39.80;101220.47;143729;597;47012;-67
2021/09/01 05:23:56;;;;;;;12.07;5.32;;;;;;;27.82;39.95;101218.72;143729;579;47006;-68
2021/09/01 05:26:31;;;;;;;9.20;5.10;;;;;;;27.92;39.90;101217.72;143731;587;46006;-68
2021/09/01 05:29:03;;;;;;;11.10;5.07;;;;;;;27.98;39.62;101224.81;143732;723;47004;-68
2021/09/01 05:31:31;;;;;;;11.77;5.32;;;;;;;28.06;39.61;101234.31;143729;568;47012;-67
2021/09/01 05:34:02;;;;;;;8.70;5.60;;;;;;;28.11;39.51;101225.97;143722;694;47006;-67
2021/09/01 05:36:29;;;;;;;10.05;5.12;;;;;;;28.16;39.65;101235.25;143731;579;47006;-67
2021/09/01 05:38:57;;;;;;;9.30;5.22;;;;;;;28.21;39.23;101233.25;143734;573;46006;-66
2021/09/01 05:41:28;;;;;;;6.18;4.87;;;;;;;28.24;39.81;101221.56;143729;629;47013;-66
2021/09/01 05:43:56;;;;;;;10.68;5.45;;;;;;;28.32;39.17;101205.41;143730;650;47004;-67
2021/09/01 05:46:23;;;;;;;7.57;5.07;;;;;;;28.39;39.74;101205.81;143730;569;47008;-69
2021/09/01 05:48:52;;;;;;;8.57;4.97;;;;;;;28.47;39.87;101204.28;143732;626;48007;-66
2021/09/01 05:51:19;;;;;;;8.88;5.37;;;;;;;28.50;40.15;101203.66;143730;569;47008;-67
2021/09/01 05:53:45;;;;;;;6.75;5.00;;;;;;;28.56;40.06;101199.66;143728;670;47004;-67
2021/09/01 05:56:18;;;;;;;10.70;5.15;;;;;;;28.62;40.95;101194.81;143731;578;47008;-67
2021/09/01 05:58:50;;;;;;;8.10;5.40;;;;;;;28.66;40.21;101191.16;143724;904;47004;-68
2021/09/01 06:01:25;;;;;;;6.95;5.65;;;;;;;28.72;40.96;101184.34;143732;730;46010;-67
2021/09/01 06:03:56;;;;;;;9.27;5.70;;;;;;;28.78;41.16;101178.75;143730;627;47004;-67
2021/09/01 06:06:23;;;;;;;8.00;5.97;;;;;;;28.83;41.69;101171.16;143730;660;46008;-67
2021/09/01 06:08:50;;;;;;;11.38;5.62;;;;;;;28.93;41.71;101172.06;143734;573;46008;-67
2021/09/01 06:11:22;;;;;;;10.63;5.60;;;;;;;28.97;42.03;101167.50;143730;603;47011;-67
2021/09/01 06:13:49;;;;;;;8.20;5.90;;;;;;;29.02;41.90;101175.69;143733;683;47008;-68
2021/09/01 06:16:15;;;;;;;14.65;6.15;;;;;;;29.09;41.51;101186.31;143731;658;47008;-67
2021/09/01 06:18:42;;;;;;;8.13;5.90;;;;;;;29.14;42.08;101183.44;143729;569;47004;-68
2021/09/01 06:21:08;;;;;;;12.85;6.40;;;;;;;29.20;41.65;101180.22;143729;572;47008;-66
2021/09/01 06:23:35;;;;;;;7.75;5.43;;;;;;;29.27;41.61;101178.97;143723;716;47004;-67
2021/09/01 06:26:03;;;;;;;8.20;5.57;;;;;;;29.32;41.11;101185.19;143729;570;47009;-67
2021/09/01 06:28:29;;;;;;;10.30;6.07;;;;;;;29.37;40.82;101167.69;143732;572;47004;-66
2021/09/01 06:30:56;;;;;;;10.32;5.82;;;;;;;29.41;40.72;101170.62;143727;569;47010;-67
2021/09/01 06:33:22;;;;;;;8.68;5.43;;;;;;;29.48;41.35;101163.50;143727;700;47004;-67
2021/09/01 06:35:49;;;;;;;8.00;5.72;;;;;;;29.52;40.14;101163.72;143732;604;47008;-66
2021/09/01 06:38:15;;;;;;;11.30;5.75;;;;;;;29.53;40.64;101167.28;143732;572;47004;-67
2021/09/01 06:40:42;;;;;;;9.07;5.45;;;;;;;29.53;40.10;101170.03;143730;668;47012;-67
2021/09/01 06:43:11;;;;;;;10.05;6.87;;;;;;;29.55;41.08;101162.25;143729;589;47004;-65
2021/09/01 06:45:40;;;;;;;7.78;5.90;;;;;;;29.54;41.51;101168.91;143729;650;47008;-67
2021/09/01 06:48:06;;;;;;;11.10;6.53;;;;;;;29.62;41.80;101165.37;143724;589;47002;-67
2021/09/01 06:50:33;;;;;;;9.38;6.37;;;;;;;29.68;42.72;101168.81;143731;686;47012;-67
2021/09/01 06:53:00;;;;;;;10.10;6.55;;;;;;;29.67;43.71;101164.44;143727;650;47006;-66
2021/09/01 06:55:26;;;;;;;8.18;6.40;;;;;;;29.77;43.97;101161.38;143731;584;47007;-68
2021/09/01 06:57:53;;;;;;;11.00;6.18;;;;;;;29.87;42.72;101171.34;143732;597;47004;-67
2021/09/01 07:00:20;;;;;;;10.18;6.82;;;;;;;29.99;42.25;101170.78;143731;572;46012;-68
2021/09/01 07:02:47;;;;;;;12.73;6.78;;;;;;;30.08;42.34;101166.91;143729;626;47005;-67
2021/09/01 07:05:14;;;;;;;10.32;7.03;;;;;;;30.14;42.52;101159.25;143727;599;49002;-67
2021/09/01 07:07:42;;;;;;;9.38;6.57;;;;;;;30.19;42.72;101166.59;143731;584;47004;-67
2021/09/01 07:10:10;;;;;;;14.43;7.25;;;;;;;30.13;43.29;101162.34;143728;591;47004;-67
2021/09/01 07:12:37;;;;;;;9.70;6.85;;;;;;;30.00;43.44;101173.25;143723;615;47004;-67
2021/09/01 07:15:07;;;;;;;8.93;7.28;;;;;;;29.93;42.91;101168.13;143731;597;47008;-67
2021/09/01 07:17:34;;;;;;;154.32;19.50;;;;;;;30.03;43.40;101169.00;143731;575;47002;-68
2021/09/01 07:20:00;;;;;;;29.60;7.90;;;;;;;30.13;42.36;101160.38;143724;597;47008;-67
2021/09/01 07:22:27;;;;;;;8.93;6.55;;;;;;;30.19;43.06;101169.37;143729;581;47006;-66
2021/09/01 07:24:53;;;;;;;8.23;6.45;;;;;;;30.30;42.59;101159.63;143728;577;47007;-66
2021/09/01 07:27:20;;;;;;;14.50;7.10;;;;;;;30.40;42.48;101166.81;143732;666;47006;-67
2021/09/01 07:29:47;;;;;;;9.80;7.22;;;;;;;30.54;43.20;101163.88;143730;574;47012;-67
2021/09/01 07:32:13;;;;;;;12.88;7.55;;;;;;;30.68;42.42;101163.78;143728;599;47004;-67
2021/09/01 07:34:40;;;;;;;10.65;6.70;;;;;;;30.75;41.77;101166.91;143732;595;47006;-67
2021/09/01 07:37:06;;;;;;;10.43;7.37;;;;;;;30.80;42.46;101180.56;143725;574;47004;-68
2021/09/01 07:39:33;;;;;;;11.07;7.87;;;;;;;30.80;42.79;101177.00;143729;615;47011;-67
2021/09/01 07:41:59;;;;;;;10.57;8.05;;;;;;;30.94;42.82;101180.41;143728;568;47004;-66
2021/09/01 07:44:26;;;;;;;11.23;8.15;;;;;;;30.85;43.06;101185.16;143731;590;47006;-68
2021/09/01 07:46:52;;;;;;;13.45;8.35;;;;;;;30.84;43.04;101181.56;143732;606;47006;-68
2021/09/01 07:49:19;;;;;;;10.35;8.45;;;;;;;30.88;42.52;101178.97;143729;567;47010;-67
2021/09/01 07:51:47;;;;;;;10.13;7.70;;;;;;;30.93;42.23;101192.66;143727;582;47006;-66
2021/09/01 07:54:13;;;;;;;9.57;7.85;;;;;;;30.91;42.33;101183.03;143731;568;47008;-66
2021/09/01 07:56:40;;;;;;;9.90;7.97;;;;;;;30.91;42.25;101175.53;143731;584;47002;-68
2021/09/01 07:59:06;;;;;;;10.38;7.85;;;;;;;31.00;42.32;101184.66;143729;584;47010;-67
2021/09/01 08:01:32;;;;;;;12.90;7.75;;;;;;;31.08;42.20;101188.59;143722;590;47006;-67
2021/09/01 08:03:59;;;;;;;10.15;7.40;;;;;;;31.12;41.74;101177.62;143729;597;47008;-66
2021/09/01 08:06:25;;;;;;;10.55;7.60;;;;;;;31.24;42.02;101166.72;143731;622;47004;-66
2021/09/01 08:08:52;;;;;;;8.85;7.25;;;;;;;31.26;41.63;101174.72;143727;601;47921;-66
2021/09/01 08:11:18;;;;;;;8.95;6.68;;;;;;;31.30;41.36;101168.16;143731;574;47006;-65
2021/09/01 08:13:44;;;;;;;8.88;7.35;;;;;;;31.44;41.41;101173.53;143732;598;47008;-66
2021/09/01 08:16:11;;;;;;;9.65;7.50;;;;;;;31.46;40.74;101170.41;143732;573;47002;-67
2021/09/01 08:18:37;;;;;;;7.45;6.70;;;;;;;31.41;40.95;101171.41;143731;598;47010;-67
2021/09/01 08:21:04;;;;;;;7.93;7.07;;;;;;;31.53;40.31;101172.69;143731;610;47006;-66
2021/09/01 08:23:30;;;;;;;8.05;6.93;;;;;;;31.61;40.27;101180.97;143730;584;46015;-68
2021/09/01 08:25:57;;;;;;;9.30;7.05;;;;;;;31.69;40.42;101168.22;143724;607;47004;-66
2021/09/01 08:28:23;;;;;;;7.28;6.55;;;;;;;31.72;39.69;101175.91;143731;572;47012;-66
2021/09/01 08:30:50;;;;;;;6.95;6.22;;;;;;;31.67;39.62;101170.53;143730;584;47004;-66
2021/09/01 08:33:16;;;;;;;13.40;6.60;;;;;;;31.60;39.80;101168.25;143727;603;48000;-66
2021/09/01 08:35:43;;;;;;;8.30;6.50;;;;;;;31.72;38.55;101155.69;143733;589;47006;-66
2021/09/01 08:38:09;;;;;;;9.15;6.65;;;;;;;31.83;39.81;101170.00;143731;625;47010;-67
2021/09/01 08:40:36;;;;;;;10.27;6.32;;;;;;;31.84;39.15;101166.88;143730;581;47004;-66
2021/09/01 08:43:02;;;;;;;7.40;6.68;;;;;;;31.83;38.94;101173.59;143730;612;47008;-67
2021/09/01 08:45:29;;;;;;;8.43;6.35;;;;;;;31.95;38.41;101166.53;143733;603;47006;-67
2021/09/01 08:47:57;;;;;;;7.68;6.07;;;;;;;31.94;38.45;101162.13;143729;600;47010;-66
2021/09/01 08:50:28;;;;;;;8.65;6.10;;;;;;;31.96;37.90;101162.59;143722;586;47006;-67
2021/09/01 08:52:54;;;;;;;6.68;5.65;;;;;;;32.01;37.84;101154.91;143729;709;46006;-67
2021/09/01 08:55:21;;;;;;;10.90;6.00;;;;;;;32.14;38.05;101164.12;143732;592;47006;-67
2021/09/01 08:57:47;;;;;;;10.07;6.18;;;;;;;32.17;37.78;101174.56;143729;597;47010;-67
2021/09/01 09:00:15;;;;;;;16.95;6.87;;;;;;;32.18;37.48;101165.09;143729;579;47005;-67
2021/09/01 09:02:55;;;;;;;9.13;5.57;;;;;;;32.16;37.74;101161.81;143729;584;47008;-66
2021/09/01 09:05:48;;;;;;;8.18;5.78;;;;;;;32.35;37.02;101166.16;143733;596;47006;-66
2021/09/01 09:08:15;;;;;;;8.13;6.18;;;;;;;32.40;36.87;101157.62;143724;642;47021;-66
2021/09/01 09:10:47;;;;;;;8.93;6.45;;;;;;;32.45;38.38;101159.37;143726;691;47010;-68
2021/09/01 09:13:16;;;;;;;7.70;6.55;;;;;;;32.42;37.87;101155.31;143726;649;47006;-67
2021/09/01 09:15:43;;;;;;;8.27;6.12;;;;;;;32.36;38.43;101145.53;143722;715;47004;-67
2021/09/01 09:18:29;;;;;;;9.65;6.10;;;;;;;32.31;38.67;101143.78;143729;606;47008;-68
2021/09/01 09:21:21;;;;;;;8.25;7.07;;;;;;;32.42;38.24;101143.38;143726;628;47006;-67
2021/09/01 09:23:50;;;;;;;7.30;6.60;;;;;;;32.51;38.26;101142.16;143728;577;47006;-67
2021/09/01 09:26:28;;;;;;;8.85;6.12;;;;;;;32.55;37.12;101145.09;143730;585;47006;-69
2021/09/01 09:29:17;;;;;;;9.48;5.55;;;;;;;32.54;36.68;101150.97;143727;567;47010;-67
2021/09/01 09:31:47;;;;;;;7.28;6.03;;;;;;;32.56;36.37;101143.94;143728;628;47004;-67
2021/09/01 09:34:22;;;;;;;8.13;5.90;;;;;;;32.63;36.32;101143.41;143728;608;47006;-67
2021/09/01 09:37:06;;;;;;;6.45;5.25;;;;;;;32.59;35.70;101153.56;143730;603;47006;-68
2021/09/01 09:39:46;;;;;;;6.07;5.47;;;;;;;32.63;35.74;101140.62;143728;586;47011;-67
2021/09/01 09:42:28;;;;;;;7.35;6.25;;;;;;;32.66;36.24;101145.47;143722;596;47006;-67
2021/09/01 09:44:55;;;;;;;9.93;6.10;;;;;;;32.70;36.53;101140.88;143729;778;46008;-69
2021/09/01 09:47:48;;;;;;;7.07;6.37;;;;;;;32.69;37.40;101133.69;143727;623;47004;-68
2021/09/01 09:50:15;;;;;;;7.95;6.35;;;;;;;32.69;38.10;101121.75;143727;609;47010;-67
2021/09/01 09:52:42;;;;;;;6.62;5.85;;;;;;;32.76;37.86;101124.78;143728;598;47006;-68
2021/09/01 09:55:13;;;;;;;6.60;5.85;;;;;;;32.74;37.60;101119.56;143727;616;47008;-67
2021/09/01 09:58:05;;;;;;;6.32;5.72;;;;;;;32.78;37.59;101122.47;143729;656;47002;-67
2021/09/01 10:00:32;;;;;;;9.20;6.40;;;;;;;32.79;37.87;101113.81;143731;574;46009;-67
2021/09/01 10:02:58;;;;;;;6.95;5.07;;;;;;;32.81;36.95;101124.59;143728;577;47006;-68
2021/09/01 10:05:28;;;;;;;6.35;5.75;;;;;;;32.83;37.03;101115.94;143729;658;47008;-68
2021/09/01 10:07:57;;;;;;;7.35;6.50;;;;;;;32.72;37.10;101118.31;143727;616;46002;-66
2021/09/01 10:10:26;;;;;;;6.57;5.90;;;;;;;32.72;36.72;101109.97;143734;601;46012;-65
2021/09/01 10:12:53;;;;;;;9.57;6.62;;;;;;;32.88;34.98;101110.16;143733;594;46006;-65
2021/09/01 10:15:35;;;;;;;6.22;5.62;;;;;;;32.99;36.99;101111.37;143729;646;47009;-65
2021/09/01 10:18:09;;;;;;;9.80;6.22;;;;;;;33.08;36.48;101108.50;143729;578;47004;-65
2021/09/01 10:20:41;;;;;;;10.43;6.18;;;;;;;33.13;36.31;101113.03;143731;614;46008;-66
2021/09/01 10:23:10;;;;;;;8.48;6.53;;;;;;;33.22;36.40;101100.63;143728;593;47007;-65
2021/09/01 10:25:45;;;;;;;6.90;5.70;;;;;;;33.29;37.09;101110.38;143728;662;47006;-65
2021/09/01 10:28:40;;;;;;;6.65;5.87;;;;;;;33.29;36.48;101105.63;143730;597;47004;-65
2021/09/01 10:31:20;;;;;;;9.45;6.00;;;;;;;33.28;37.02;101100.38;143729;606;47010;-70
2021/09/01 10:33:54;;;;;;;6.82;6.22;;;;;;;33.19;36.08;101097.72;143721;574;47004;-69
2021/09/01 10:36:39;;;;;;;8.43;5.95;;;;;;;33.16;36.27;101093.66;143725;664;46008;-76
2021/09/01 10:39:38;;;;;;;9.75;7.03;;;;;;;33.29;36.38;101080.56;143730;595;47006;-66
2021/09/01 10:42:35;;;;;;;12.02;6.85;;;;;;;33.31;37.14;101072.69;143729;576;46921;-66
2021/09/01 10:45:02;;;;;;;11.25;7.50;;;;;;;33.29;37.11;101080.56;143727;599;47004;-66
2021/09/01 10:48:08;;;;;;;11.02;7.28;;;;;;;33.31;37.21;101072.69;143728;682;46008;-62
2021/09/01 10:50:38;;;;;;;9.45;7.78;;;;;;;33.36;35.59;101075.25;143729;583;47004;-63
2021/09/01 10:53:25;;;;;;;7.82;6.40;;;;;;;33.43;36.50;101074.72;143727;772;47010;-64
2021/09/01 10:56:06;;;;;;;7.93;5.53;;;;;;;33.50;36.84;101077.72;143729;665;47006;-65
2021/09/01 10:58:44;;;;;;;6.03;5.43;;;;;;;33.53;35.92;101095.72;143727;598;47006;-64
2021/09/01 11:01:22;;;;;;;7.53;6.68;;;;;;;33.46;36.59;101098.25;143722;677;47006;-63
2021/09/01 11:04:02;;;;;;;8.07;5.60;;;;;;;33.41;35.60;101083.41;143729;622;47010;-67
2021/09/01 11:06:36;;;;;;;7.05;6.12;;;;;;;33.40;36.63;101090.13;143727;590;47005;-63
2021/09/01 11:09:14;;;;;;;6.32;5.10;;;;;;;33.45;35.01;101086.28;143728;604;47006;-67
2021/09/01 11:11:57;;;;;;;6.90;5.65;;;;;;;33.56;32.91;101079.12;143729;614;47006;-67
2021/09/01 11:14:38;;;;;;;9.32;5.65;;;;;;;33.65;33.12;101083.75;143728;623;47006;-66
2021/09/01 11:17:12;;;;;;;9.35;6.65;;;;;;;33.52;33.43;101067.06;143727;612;47004;-63
2021/09/01 11:19:42;;;;;;;7.72;5.72;;;;;;;33.57;33.88;101060.44;143724;676;47008;-67
2021/09/01 11:22:17;;;;;;;6.72;5.15;;;;;;;33.60;34.26;101054.16;143729;588;47002;-67
2021/09/01 11:25:00;;;;;;;7.90;5.80;;;;;;;33.66;34.47;101049.16;143729;630;47010;-66
2021/09/01 11:27:28;;;;;;;9.03;5.43;;;;;;;33.64;33.44;101060.66;143721;573;47006;-67
2021/09/01 11:30:21;;;;;;;6.45;5.65;;;;;;;33.66;34.08;101054.75;143729;568;47008;-68
2021/09/01 11:32:55;;;;;;;10.35;6.37;;;;;;;33.74;35.04;101055.78;143730;665;47004;-67